sensor_id;sensor_type;location;lat;lon;timestamp;temperature;humidity
25640;DHT22;13497;48.322;16.204;2023-06-10T00:00:22;16.60;99.90
25640;DHT22;13497;48.322;16.204;2023-06-10T00:02:48;16.60;99.90
25640;DHT22;13497;48.322;16.204;2023-06-10T00:05:13;16.60;99.90
25640;DHT22;13497;48.322;16.204;2023-06-10T00:07:41;16.50;99.90
25640;DHT22;13497;48.322;16.204;2023-06-10T00:10:07;16.40;99.90
25640;DHT22;13497;48.322;16.204;2023-06-10T00:12:34;16.30;99.90
25640;DHT22;13497;48.322;16.204;2023-06-10T00:15:05;16.30;99.90
25640;DHT22;13497;48.322;16.204;2023-06-10T00:17:31;16.20;99.90
25640;DHT22;13497;48.322;16.204;2023-06-10T00:19:56;16.20;99.90
25640;DHT22;13497;48.322;16.204;2023-06-10T00:22:23;16.30;99.90
25640;DHT22;13497;48.322;16.204;2023-06-10T00:24:49;16.30;99.90
25640;DHT22;13497;48.322;16.204;2023-06-10T00:27:16;16.40;99.90
25640;DHT22;13497;48.322;16.204;2023-06-10T00:29:42;16.50;99.90
25640;DHT22;13497;48.322;16.204;2023-06-10T00:32:07;16.60;99.90
25640;DHT22;13497;48.322;16.204;2023-06-10T00:34:33;16.60;99.90
25640;DHT22;13497;48.322;16.204;2023-06-10T00:36:59;16.60;99.90
25640;DHT22;13497;48.322;16.204;2023-06-10T00:39:24;16.60;99.90
25640;DHT22;13497;48.322;16.204;2023-06-10T00:41:50;16.70;99.90
25640;DHT22;13497;48.322;16.204;2023-06-10T00:44:16;16.70;99.90
25640;DHT22;13497;48.322;16.204;2023-06-10T00:46:42;16.90;99.90
25640;DHT22;13497;48.322;16.204;2023-06-10T00:49:08;17.10;99.90
25640;DHT22;13497;48.322;16.204;2023-06-10T00:51:36;17.20;99.90
25640;DHT22;13497;48.322;16.204;2023-06-10T00:54:02;17.10;99.90
25640;DHT22;13497;48.322;16.204;2023-06-10T00:56:28;17.10;99.90
25640;DHT22;13497;48.322;16.204;2023-06-10T00:58:54;17.10;99.90
25640;DHT22;13497;48.322;16.204;2023-06-10T01:01:20;17.10;99.90
25640;DHT22;13497;48.322;16.204;2023-06-10T01:03:45;17.10;99.90
25640;DHT22;13497;48.322;16.204;2023-06-10T01:09:18;17.20;99.90
25640;DHT22;13497;48.322;16.204;2023-06-10T01:11:58;17.20;99.90
25640;DHT22;13497;48.322;16.204;2023-06-10T01:14:27;17.20;99.90
25640;DHT22;13497;48.322;16.204;2023-06-10T01:16:54;17.20;99.90
25640;DHT22;13497;48.322;16.204;2023-06-10T01:19:22;17.20;99.90
25640;DHT22;13497;48.322;16.204;2023-06-10T01:21:50;17.20;99.90
25640;DHT22;13497;48.322;16.204;2023-06-10T01:24:17;17.20;99.90
25640;DHT22;13497;48.322;16.204;2023-06-10T01:26:48;17.20;99.90
25640;DHT22;13497;48.322;16.204;2023-06-10T01:29:25;17.30;99.90
25640;DHT22;13497;48.322;16.204;2023-06-10T01:32:32;17.40;99.90
25640;DHT22;13497;48.322;16.204;2023-06-10T01:35:00;17.40;99.90
25640;DHT22;13497;48.322;16.204;2023-06-10T01:37:27;17.40;99.90
25640;DHT22;13497;48.322;16.204;2023-06-10T01:39:57;17.40;99.90
25640;DHT22;13497;48.322;16.204;2023-06-10T01:42:25;17.40;99.90
25640;DHT22;13497;48.322;16.204;2023-06-10T01:44:51;17.40;99.90
25640;DHT22;13497;48.322;16.204;2023-06-10T01:47:16;17.30;99.90
25640;DHT22;13497;48.322;16.204;2023-06-10T01:49:43;17.30;99.90
25640;DHT22;13497;48.322;16.204;2023-06-10T01:52:08;17.20;99.90
25640;DHT22;13497;48.322;16.204;2023-06-10T01:54:34;17.10;99.90
25640;DHT22;13497;48.322;16.204;2023-06-10T01:57:01;17.10;99.90
25640;DHT22;13497;48.322;16.204;2023-06-10T01:59:26;17.10;99.90
25640;DHT22;13497;48.322;16.204;2023-06-10T02:01:52;17.20;99.90
25640;DHT22;13497;48.322;16.204;2023-06-10T02:04:18;17.30;99.90
25640;DHT22;13497;48.322;16.204;2023-06-10T02:06:44;17.30;99.90
25640;DHT22;13497;48.322;16.204;2023-06-10T02:09:10;17.40;99.90
25640;DHT22;13497;48.322;16.204;2023-06-10T02:11:36;17.30;99.90
25640;DHT22;13497;48.322;16.204;2023-06-10T02:14:02;17.30;99.90
25640;DHT22;13497;48.322;16.204;2023-06-10T02:16:27;17.30;99.90
25640;DHT22;13497;48.322;16.204;2023-06-10T02:18:53;17.20;99.90
25640;DHT22;13497;48.322;16.204;2023-06-10T02:21:20;17.30;99.90
25640;DHT22;13497;48.322;16.204;2023-06-10T02:23:45;17.30;99.90
25640;DHT22;13497;48.322;16.204;2023-06-10T02:26:11;17.20;99.90
25640;DHT22;13497;48.322;16.204;2023-06-10T02:28:37;17.30;99.90
25640;DHT22;13497;48.322;16.204;2023-06-10T02:31:02;17.30;99.90
25640;DHT22;13497;48.322;16.204;2023-06-10T02:33:28;17.40;99.90
25640;DHT22;13497;48.322;16.204;2023-06-10T02:35:55;17.40;99.90
25640;DHT22;13497;48.322;16.204;2023-06-10T02:38:21;17.40;99.90
25640;DHT22;13497;48.322;16.204;2023-06-10T02:40:46;17.40;99.90
25640;DHT22;13497;48.322;16.204;2023-06-10T02:43:12;17.40;99.90
25640;DHT22;13497;48.322;16.204;2023-06-10T02:45:38;17.40;99.90
25640;DHT22;13497;48.322;16.204;2023-06-10T02:48:03;17.40;99.90
25640;DHT22;13497;48.322;16.204;2023-06-10T02:50:29;17.40;99.90
25640;DHT22;13497;48.322;16.204;2023-06-10T02:52:55;17.40;99.90
25640;DHT22;13497;48.322;16.204;2023-06-10T02:55:20;17.40;99.90
25640;DHT22;13497;48.322;16.204;2023-06-10T02:57:46;17.40;99.90
25640;DHT22;13497;48.322;16.204;2023-06-10T03:00:12;17.50;99.90
25640;DHT22;13497;48.322;16.204;2023-06-10T03:02:39;17.50;99.90
25640;DHT22;13497;48.322;16.204;2023-06-10T03:05:06;17.50;99.90
25640;DHT22;13497;48.322;16.204;2023-06-10T03:07:36;17.50;99.90
25640;DHT22;13497;48.322;16.204;2023-06-10T03:10:02;17.50;99.90
25640;DHT22;13497;48.322;16.204;2023-06-10T03:12:28;17.60;99.90
25640;DHT22;13497;48.322;16.204;2023-06-10T03:14:54;17.60;99.90
25640;DHT22;13497;48.322;16.204;2023-06-10T03:17:20;17.70;99.90
25640;DHT22;13497;48.322;16.204;2023-06-10T03:19:45;17.60;99.90
25640;DHT22;13497;48.322;16.204;2023-06-10T03:22:13;17.70;99.90
25640;DHT22;13497;48.322;16.204;2023-06-10T03:24:39;17.70;99.90
25640;DHT22;13497;48.322;16.204;2023-06-10T03:27:08;17.60;99.90
25640;DHT22;13497;48.322;16.204;2023-06-10T03:29:35;17.60;99.90
25640;DHT22;13497;48.322;16.204;2023-06-10T03:32:01;17.70;99.90
25640;DHT22;13497;48.322;16.204;2023-06-10T03:34:27;17.70;99.90
25640;DHT22;13497;48.322;16.204;2023-06-10T03:36:53;17.80;99.90
25640;DHT22;13497;48.322;16.204;2023-06-10T03:39:18;17.70;99.90
25640;DHT22;13497;48.322;16.204;2023-06-10T03:41:44;17.70;99.90
25640;DHT22;13497;48.322;16.204;2023-06-10T03:44:10;17.80;99.90
25640;DHT22;13497;48.322;16.204;2023-06-10T03:46:35;17.80;99.90
25640;DHT22;13497;48.322;16.204;2023-06-10T03:49:01;17.80;99.90
25640;DHT22;13497;48.322;16.204;2023-06-10T03:51:29;17.80;99.90
25640;DHT22;13497;48.322;16.204;2023-06-10T03:53:54;17.80;99.90
25640;DHT22;13497;48.322;16.204;2023-06-10T03:56:20;17.90;99.90
25640;DHT22;13497;48.322;16.204;2023-06-10T03:58:46;17.90;99.90
25640;DHT22;13497;48.322;16.204;2023-06-10T04:01:11;17.90;99.90
25640;DHT22;13497;48.322;16.204;2023-06-10T04:03:38;17.90;99.90
25640;DHT22;13497;48.322;16.204;2023-06-10T04:06:05;17.80;99.90
25640;DHT22;13497;48.322;16.204;2023-06-10T04:08:30;17.80;99.90
25640;DHT22;13497;48.322;16.204;2023-06-10T04:10:58;17.80;99.90
25640;DHT22;13497;48.322;16.204;2023-06-10T04:13:24;17.80;99.90
25640;DHT22;13497;48.322;16.204;2023-06-10T04:15:49;17.80;99.90
25640;DHT22;13497;48.322;16.204;2023-06-10T04:18:16;17.80;99.90
25640;DHT22;13497;48.322;16.204;2023-06-10T04:20:42;17.80;99.90
25640;DHT22;13497;48.322;16.204;2023-06-10T04:23:07;17.80;99.90
25640;DHT22;13497;48.322;16.204;2023-06-10T04:25:33;17.80;99.90
25640;DHT22;13497;48.322;16.204;2023-06-10T04:27:59;17.80;99.90
25640;DHT22;13497;48.322;16.204;2023-06-10T04:30:24;17.80;99.90
25640;DHT22;13497;48.322;16.204;2023-06-10T04:32:50;17.70;99.90
25640;DHT22;13497;48.322;16.204;2023-06-10T04:35:16;17.70;99.90
25640;DHT22;13497;48.322;16.204;2023-06-10T04:37:42;17.70;99.90
25640;DHT22;13497;48.322;16.204;2023-06-10T04:40:09;17.70;99.90
25640;DHT22;13497;48.322;16.204;2023-06-10T04:42:36;17.70;99.90
25640;DHT22;13497;48.322;16.204;2023-06-10T04:45:01;17.70;99.90
25640;DHT22;13497;48.322;16.204;2023-06-10T04:47:29;17.80;99.90
25640;DHT22;13497;48.322;16.204;2023-06-10T04:49:59;17.80;99.90
25640;DHT22;13497;48.322;16.204;2023-06-10T04:52:24;17.80;99.90
25640;DHT22;13497;48.322;16.204;2023-06-10T04:54:50;17.90;99.90
25640;DHT22;13497;48.322;16.204;2023-06-10T04:57:16;18.00;99.90
25640;DHT22;13497;48.322;16.204;2023-06-10T04:59:42;18.00;99.90
25640;DHT22;13497;48.322;16.204;2023-06-10T05:02:07;18.10;99.90
25640;DHT22;13497;48.322;16.204;2023-06-10T05:04:33;18.20;99.90
25640;DHT22;13497;48.322;16.204;2023-06-10T05:06:59;18.30;99.90
25640;DHT22;13497;48.322;16.204;2023-06-10T05:09:25;18.30;99.90
25640;DHT22;13497;48.322;16.204;2023-06-10T05:11:51;18.40;99.90
25640;DHT22;13497;48.322;16.204;2023-06-10T05:14:19;18.40;99.90
25640;DHT22;13497;48.322;16.204;2023-06-10T05:16:46;18.40;99.90
25640;DHT22;13497;48.322;16.204;2023-06-10T05:19:12;18.40;99.90
25640;DHT22;13497;48.322;16.204;2023-06-10T05:21:37;18.30;99.90
25640;DHT22;13497;48.322;16.204;2023-06-10T05:24:03;18.30;99.90
25640;DHT22;13497;48.322;16.204;2023-06-10T05:26:29;18.30;99.90
25640;DHT22;13497;48.322;16.204;2023-06-10T05:28:57;18.30;99.90
25640;DHT22;13497;48.322;16.204;2023-06-10T05:31:22;18.40;99.90
25640;DHT22;13497;48.322;16.204;2023-06-10T05:33:48;18.30;99.90
25640;DHT22;13497;48.322;16.204;2023-06-10T05:36:14;18.30;99.90
25640;DHT22;13497;48.322;16.204;2023-06-10T05:38:39;18.40;99.90
25640;DHT22;13497;48.322;16.204;2023-06-10T05:41:05;18.40;99.90
25640;DHT22;13497;48.322;16.204;2023-06-10T05:43:31;18.50;99.90
25640;DHT22;13497;48.322;16.204;2023-06-10T05:45:56;18.50;99.90
25640;DHT22;13497;48.322;16.204;2023-06-10T05:48:22;18.60;99.90
25640;DHT22;13497;48.322;16.204;2023-06-10T05:50:48;18.60;99.90
25640;DHT22;13497;48.322;16.204;2023-06-10T05:53:16;18.60;99.90
25640;DHT22;13497;48.322;16.204;2023-06-10T05:55:45;18.70;99.90
25640;DHT22;13497;48.322;16.204;2023-06-10T05:58:11;18.70;99.90
25640;DHT22;13497;48.322;16.204;2023-06-10T06:00:41;18.70;99.90
25640;DHT22;13497;48.322;16.204;2023-06-10T06:03:09;18.80;99.90
25640;DHT22;13497;48.322;16.204;2023-06-10T06:05:36;19.00;99.90
25640;DHT22;13497;48.322;16.204;2023-06-10T06:08:09;19.20;99.90
25640;DHT22;13497;48.322;16.204;2023-06-10T06:10:35;19.30;99.90
25640;DHT22;13497;48.322;16.204;2023-06-10T06:13:02;19.60;99.90
25640;DHT22;13497;48.322;16.204;2023-06-10T06:15:28;19.80;99.90
25640;DHT22;13497;48.322;16.204;2023-06-10T06:17:54;20.00;99.90
25640;DHT22;13497;48.322;16.204;2023-06-10T06:20:20;20.00;99.90
25640;DHT22;13497;48.322;16.204;2023-06-10T06:22:46;20.00;99.90
25640;DHT22;13497;48.322;16.204;2023-06-10T06:25:11;19.70;99.90
25640;DHT22;13497;48.322;16.204;2023-06-10T06:27:37;19.40;99.90
25640;DHT22;13497;48.322;16.204;2023-06-10T06:30:03;19.20;99.90
25640;DHT22;13497;48.322;16.204;2023-06-10T06:32:29;19.20;99.90
25640;DHT22;13497;48.322;16.204;2023-06-10T06:34:55;19.20;99.90
25640;DHT22;13497;48.322;16.204;2023-06-10T06:37:24;19.20;99.90
25640;DHT22;13497;48.322;16.204;2023-06-10T06:39:53;19.40;99.90
25640;DHT22;13497;48.322;16.204;2023-06-10T06:42:20;19.50;99.90
25640;DHT22;13497;48.322;16.204;2023-06-10T06:44:46;19.60;99.90
25640;DHT22;13497;48.322;16.204;2023-06-10T06:47:12;19.60;99.90
25640;DHT22;13497;48.322;16.204;2023-06-10T06:49:38;19.70;99.90
25640;DHT22;13497;48.322;16.204;2023-06-10T06:52:04;19.70;99.90
25640;DHT22;13497;48.322;16.204;2023-06-10T06:54:30;19.70;99.90
25640;DHT22;13497;48.322;16.204;2023-06-10T06:56:55;19.60;99.90
25640;DHT22;13497;48.322;16.204;2023-06-10T06:59:21;19.50;99.90
25640;DHT22;13497;48.322;16.204;2023-06-10T07:01:47;19.50;99.90
25640;DHT22;13497;48.322;16.204;2023-06-10T07:04:15;19.60;99.90
25640;DHT22;13497;48.322;16.204;2023-06-10T07:06:41;19.80;99.90
25640;DHT22;13497;48.322;16.204;2023-06-10T07:09:07;19.90;99.90
25640;DHT22;13497;48.322;16.204;2023-06-10T07:11:34;20.10;99.90
25640;DHT22;13497;48.322;16.204;2023-06-10T07:14:00;20.30;99.90
25640;DHT22;13497;48.322;16.204;2023-06-10T07:16:26;20.40;99.90
25640;DHT22;13497;48.322;16.204;2023-06-10T07:18:52;20.40;99.90
25640;DHT22;13497;48.322;16.204;2023-06-10T07:21:19;20.50;99.90
25640;DHT22;13497;48.322;16.204;2023-06-10T07:23:45;20.30;99.90
25640;DHT22;13497;48.322;16.204;2023-06-10T07:26:11;20.20;99.90
25640;DHT22;13497;48.322;16.204;2023-06-10T07:28:39;20.20;99.90
25640;DHT22;13497;48.322;16.204;2023-06-10T07:31:06;20.30;99.90
25640;DHT22;13497;48.322;16.204;2023-06-10T07:33:32;20.30;99.90
25640;DHT22;13497;48.322;16.204;2023-06-10T07:35:58;20.30;99.90
25640;DHT22;13497;48.322;16.204;2023-06-10T07:38:25;20.30;99.90
25640;DHT22;13497;48.322;16.204;2023-06-10T07:40:50;20.30;99.90
25640;DHT22;13497;48.322;16.204;2023-06-10T07:43:16;20.50;99.90
25640;DHT22;13497;48.322;16.204;2023-06-10T07:45:43;20.70;99.90
25640;DHT22;13497;48.322;16.204;2023-06-10T07:48:09;20.70;99.90
25640;DHT22;13497;48.322;16.204;2023-06-10T07:50:34;20.90;99.90
25640;DHT22;13497;48.322;16.204;2023-06-10T07:53:01;20.90;99.90
25640;DHT22;13497;48.322;16.204;2023-06-10T07:55:26;20.90;99.90
25640;DHT22;13497;48.322;16.204;2023-06-10T07:57:53;20.70;99.90
25640;DHT22;13497;48.322;16.204;2023-06-10T08:00:19;20.70;99.90
25640;DHT22;13497;48.322;16.204;2023-06-10T08:02:44;20.60;99.90
25640;DHT22;13497;48.322;16.204;2023-06-10T08:05:10;20.60;99.90
25640;DHT22;13497;48.322;16.204;2023-06-10T08:07:36;20.50;99.90
25640;DHT22;13497;48.322;16.204;2023-06-10T08:10:02;20.30;99.90
25640;DHT22;13497;48.322;16.204;2023-06-10T08:12:29;20.10;99.90
25640;DHT22;13497;48.322;16.204;2023-06-10T08:14:55;20.10;99.90
25640;DHT22;13497;48.322;16.204;2023-06-10T08:17:21;20.20;99.90
25640;DHT22;13497;48.322;16.204;2023-06-10T08:19:47;20.30;99.90
25640;DHT22;13497;48.322;16.204;2023-06-10T08:22:12;20.40;99.90
25640;DHT22;13497;48.322;16.204;2023-06-10T08:24:38;20.50;99.90
25640;DHT22;13497;48.322;16.204;2023-06-10T08:27:04;20.50;99.90
25640;DHT22;13497;48.322;16.204;2023-06-10T08:29:31;20.70;99.90
25640;DHT22;13497;48.322;16.204;2023-06-10T08:31:57;20.70;99.90
25640;DHT22;13497;48.322;16.204;2023-06-10T08:34:23;20.80;99.90
25640;DHT22;13497;48.322;16.204;2023-06-10T08:36:49;20.80;99.90
25640;DHT22;13497;48.322;16.204;2023-06-10T08:39:19;20.70;99.90
25640;DHT22;13497;48.322;16.204;2023-06-10T08:41:47;20.80;99.90
25640;DHT22;13497;48.322;16.204;2023-06-10T08:44:22;21.00;99.90
25640;DHT22;13497;48.322;16.204;2023-06-10T08:46:52;21.40;99.90
25640;DHT22;13497;48.322;16.204;2023-06-10T08:49:19;21.70;99.90
25640;DHT22;13497;48.322;16.204;2023-06-10T08:51:50;21.80;99.90
25640;DHT22;13497;48.322;16.204;2023-06-10T08:54:21;21.80;99.90
25640;DHT22;13497;48.322;16.204;2023-06-10T08:56:49;21.80;99.90
25640;DHT22;13497;48.322;16.204;2023-06-10T08:59:18;21.80;99.90
25640;DHT22;13497;48.322;16.204;2023-06-10T09:01:46;21.80;99.90
25640;DHT22;13497;48.322;16.204;2023-06-10T09:04:12;21.60;99.90
25640;DHT22;13497;48.322;16.204;2023-06-10T09:06:38;21.60;99.90
25640;DHT22;13497;48.322;16.204;2023-06-10T09:09:06;21.40;99.90
25640;DHT22;13497;48.322;16.204;2023-06-10T09:11:32;21.50;99.90
25640;DHT22;13497;48.322;16.204;2023-06-10T09:13:58;21.50;99.90
25640;DHT22;13497;48.322;16.204;2023-06-10T09:16:25;21.60;99.90
25640;DHT22;13497;48.322;16.204;2023-06-10T09:18:51;21.50;99.90
25640;DHT22;13497;48.322;16.204;2023-06-10T09:21:24;21.40;99.90
25640;DHT22;13497;48.322;16.204;2023-06-10T09:23:51;21.40;99.90
25640;DHT22;13497;48.322;16.204;2023-06-10T09:26:18;21.50;99.90
25640;DHT22;13497;48.322;16.204;2023-06-10T09:28:47;21.80;99.90
25640;DHT22;13497;48.322;16.204;2023-06-10T09:31:13;22.10;99.90
25640;DHT22;13497;48.322;16.204;2023-06-10T09:33:39;22.50;99.90
25640;DHT22;13497;48.322;16.204;2023-06-10T09:36:06;22.90;99.90
25640;DHT22;13497;48.322;16.204;2023-06-10T09:38:32;23.10;99.90
25640;DHT22;13497;48.322;16.204;2023-06-10T09:40:59;23.50;99.90
25640;DHT22;13497;48.322;16.204;2023-06-10T09:43:40;23.90;99.90
25640;DHT22;13497;48.322;16.204;2023-06-10T09:46:06;24.40;99.90
25640;DHT22;13497;48.322;16.204;2023-06-10T09:48:35;24.50;99.90
25640;DHT22;13497;48.322;16.204;2023-06-10T09:51:09;24.30;99.90
25640;DHT22;13497;48.322;16.204;2023-06-10T09:53:36;24.30;99.90
25640;DHT22;13497;48.322;16.204;2023-06-10T09:56:01;24.00;99.90
25640;DHT22;13497;48.322;16.204;2023-06-10T09:58:35;24.20;99.90
25640;DHT22;13497;48.322;16.204;2023-06-10T10:01:05;23.90;99.90
25640;DHT22;13497;48.322;16.204;2023-06-10T10:03:30;23.80;99.90
25640;DHT22;13497;48.322;16.204;2023-06-10T10:05:59;23.70;99.90
25640;DHT22;13497;48.322;16.204;2023-06-10T10:08:28;23.60;99.90
25640;DHT22;13497;48.322;16.204;2023-06-10T10:10:56;23.40;99.90
25640;DHT22;13497;48.322;16.204;2023-06-10T10:13:22;23.10;99.90
25640;DHT22;13497;48.322;16.204;2023-06-10T10:15:49;23.00;99.90
25640;DHT22;13497;48.322;16.204;2023-06-10T10:18:18;23.30;99.90
25640;DHT22;13497;48.322;16.204;2023-06-10T10:20:50;23.60;99.90
25640;DHT22;13497;48.322;16.204;2023-06-10T10:26:18;23.70;99.90
25640;DHT22;13497;48.322;16.204;2023-06-10T10:28:53;23.70;99.90
25640;DHT22;13497;48.322;16.204;2023-06-10T10:31:22;23.50;99.90
25640;DHT22;13497;48.322;16.204;2023-06-10T10:36:16;23.90;99.90
25640;DHT22;13497;48.322;16.204;2023-06-10T10:38:42;24.30;99.90
25640;DHT22;13497;48.322;16.204;2023-06-10T10:41:10;24.30;99.90
25640;DHT22;13497;48.322;16.204;2023-06-10T10:43:36;24.30;99.90
25640;DHT22;13497;48.322;16.204;2023-06-10T10:46:08;24.30;99.90
25640;DHT22;13497;48.322;16.204;2023-06-10T10:48:38;24.60;99.90
25640;DHT22;13497;48.322;16.204;2023-06-10T10:51:04;24.50;99.90
25640;DHT22;13497;48.322;16.204;2023-06-10T10:53:30;24.90;99.90
25640;DHT22;13497;48.322;16.204;2023-06-10T10:56:06;24.90;99.90
25640;DHT22;13497;48.322;16.204;2023-06-10T10:58:35;25.00;99.90
25640;DHT22;13497;48.322;16.204;2023-06-10T11:01:10;24.50;99.90
25640;DHT22;13497;48.322;16.204;2023-06-10T11:03:45;24.40;99.90
25640;DHT22;13497;48.322;16.204;2023-06-10T11:06:17;24.40;99.90
25640;DHT22;13497;48.322;16.204;2023-06-10T11:11:30;24.30;99.90
25640;DHT22;13497;48.322;16.204;2023-06-10T11:16:42;24.80;99.90
25640;DHT22;13497;48.322;16.204;2023-06-10T11:19:09;25.00;99.90
25640;DHT22;13497;48.322;16.204;2023-06-10T11:21:58;25.10;99.90
25640;DHT22;13497;48.322;16.204;2023-06-10T11:24:25;24.60;99.90
25640;DHT22;13497;48.322;16.204;2023-06-10T11:26:51;24.60;99.90
25640;DHT22;13497;48.322;16.204;2023-06-10T11:29:17;24.50;99.90
25640;DHT22;13497;48.322;16.204;2023-06-10T11:31:49;24.60;99.90
25640;DHT22;13497;48.322;16.204;2023-06-10T11:34:15;24.90;99.90
25640;DHT22;13497;48.322;16.204;2023-06-10T11:36:46;25.00;99.90
25640;DHT22;13497;48.322;16.204;2023-06-10T11:39:12;25.10;99.90
25640;DHT22;13497;48.322;16.204;2023-06-10T11:41:39;25.40;99.90
25640;DHT22;13497;48.322;16.204;2023-06-10T11:44:12;25.60;99.90
25640;DHT22;13497;48.322;16.204;2023-06-10T11:46:38;25.80;99.90
25640;DHT22;13497;48.322;16.204;2023-06-10T11:49:05;26.00;99.90
25640;DHT22;13497;48.322;16.204;2023-06-10T11:51:36;26.40;99.90
25640;DHT22;13497;48.322;16.204;2023-06-10T11:54:03;26.70;99.90
25640;DHT22;13497;48.322;16.204;2023-06-10T11:56:31;26.70;99.90
25640;DHT22;13497;48.322;16.204;2023-06-10T11:59:07;26.40;99.90
25640;DHT22;13497;48.322;16.204;2023-06-10T12:01:37;26.00;99.90
25640;DHT22;13497;48.322;16.204;2023-06-10T12:04:08;25.40;99.90
25640;DHT22;13497;48.322;16.204;2023-06-10T12:06:45;24.80;99.90
25640;DHT22;13497;48.322;16.204;2023-06-10T12:09:16;24.50;99.90
25640;DHT22;13497;48.322;16.204;2023-06-10T12:11:43;24.30;99.90
25640;DHT22;13497;48.322;16.204;2023-06-10T12:14:09;24.30;99.90
25640;DHT22;13497;48.322;16.204;2023-06-10T12:16:35;24.40;99.90
25640;DHT22;13497;48.322;16.204;2023-06-10T12:19:05;24.60;99.90
25640;DHT22;13497;48.322;16.204;2023-06-10T12:21:33;24.70;99.90
25640;DHT22;13497;48.322;16.204;2023-06-10T12:24:11;24.90;99.90
25640;DHT22;13497;48.322;16.204;2023-06-10T12:26:42;25.20;99.90
25640;DHT22;13497;48.322;16.204;2023-06-10T12:29:24;25.30;99.90
25640;DHT22;13497;48.322;16.204;2023-06-10T12:32:03;25.20;99.90
25640;DHT22;13497;48.322;16.204;2023-06-10T12:34:35;25.50;99.90
25640;DHT22;13497;48.322;16.204;2023-06-10T12:37:03;25.60;99.90
25640;DHT22;13497;48.322;16.204;2023-06-10T12:39:33;25.40;99.90
25640;DHT22;13497;48.322;16.204;2023-06-10T12:41:59;25.30;99.90
25640;DHT22;13497;48.322;16.204;2023-06-10T12:44:32;25.40;99.90
25640;DHT22;13497;48.322;16.204;2023-06-10T12:46:59;25.40;99.90
25640;DHT22;13497;48.322;16.204;2023-06-10T12:49:24;25.30;99.90
25640;DHT22;13497;48.322;16.204;2023-06-10T12:51:52;24.90;99.90
25640;DHT22;13497;48.322;16.204;2023-06-10T12:54:17;24.60;99.90
25640;DHT22;13497;48.322;16.204;2023-06-10T12:56:43;24.60;99.90
25640;DHT22;13497;48.322;16.204;2023-06-10T12:59:09;24.50;99.90
25640;DHT22;13497;48.322;16.204;2023-06-10T13:01:34;24.50;99.90
25640;DHT22;13497;48.322;16.204;2023-06-10T13:04:01;24.60;99.90
25640;DHT22;13497;48.322;16.204;2023-06-10T13:06:26;24.30;99.90
25640;DHT22;13497;48.322;16.204;2023-06-10T13:08:52;24.30;99.90
25640;DHT22;13497;48.322;16.204;2023-06-10T13:11:18;24.20;99.90
25640;DHT22;13497;48.322;16.204;2023-06-10T13:13:43;24.30;99.90
25640;DHT22;13497;48.322;16.204;2023-06-10T13:16:09;24.50;99.90
25640;DHT22;13497;48.322;16.204;2023-06-10T13:18:35;24.70;99.90
25640;DHT22;13497;48.322;16.204;2023-06-10T13:21:03;25.00;99.90
25640;DHT22;13497;48.322;16.204;2023-06-10T13:23:29;25.10;99.90
25640;DHT22;13497;48.322;16.204;2023-06-10T13:25:56;25.40;99.90
25640;DHT22;13497;48.322;16.204;2023-06-10T13:28:22;25.60;99.90
25640;DHT22;13497;48.322;16.204;2023-06-10T13:30:48;25.40;99.90
25640;DHT22;13497;48.322;16.204;2023-06-10T13:33:14;25.20;99.90
25640;DHT22;13497;48.322;16.204;2023-06-10T13:35:39;25.20;99.90
25640;DHT22;13497;48.322;16.204;2023-06-10T13:38:06;25.40;99.90
25640;DHT22;13497;48.322;16.204;2023-06-10T13:40:32;25.10;99.90
25640;DHT22;13497;48.322;16.204;2023-06-10T13:42:58;24.90;99.90
25640;DHT22;13497;48.322;16.204;2023-06-10T13:45:24;24.80;99.90
25640;DHT22;13497;48.322;16.204;2023-06-10T13:47:50;24.70;99.90
25640;DHT22;13497;48.322;16.204;2023-06-10T13:50:16;24.80;99.90
25640;DHT22;13497;48.322;16.204;2023-06-10T13:52:42;24.80;99.90
25640;DHT22;13497;48.322;16.204;2023-06-10T13:55:08;24.90;99.90
25640;DHT22;13497;48.322;16.204;2023-06-10T13:57:33;25.00;99.90
25640;DHT22;13497;48.322;16.204;2023-06-10T13:59:59;25.20;99.90
25640;DHT22;13497;48.322;16.204;2023-06-10T14:02:26;25.30;99.90
25640;DHT22;13497;48.322;16.204;2023-06-10T14:04:52;25.40;99.90
25640;DHT22;13497;48.322;16.204;2023-06-10T14:07:18;25.30;99.90
25640;DHT22;13497;48.322;16.204;2023-06-10T14:09:44;25.10;99.90
25640;DHT22;13497;48.322;16.204;2023-06-10T14:12:10;25.00;99.90
25640;DHT22;13497;48.322;16.204;2023-06-10T14:14:36;25.00;99.90
25640;DHT22;13497;48.322;16.204;2023-06-10T14:17:02;25.00;99.90
25640;DHT22;13497;48.322;16.204;2023-06-10T14:19:29;25.10;99.90
25640;DHT22;13497;48.322;16.204;2023-06-10T14:21:55;25.30;99.90
25640;DHT22;13497;48.322;16.204;2023-06-10T14:24:21;25.50;99.90
25640;DHT22;13497;48.322;16.204;2023-06-10T14:26:46;25.50;99.90
25640;DHT22;13497;48.322;16.204;2023-06-10T14:29:12;25.50;99.90
25640;DHT22;13497;48.322;16.204;2023-06-10T14:31:40;25.30;99.90
25640;DHT22;13497;48.322;16.204;2023-06-10T14:34:05;25.20;99.90
25640;DHT22;13497;48.322;16.204;2023-06-10T14:36:34;25.20;99.90
25640;DHT22;13497;48.322;16.204;2023-06-10T14:39:02;25.40;99.90
25640;DHT22;13497;48.322;16.204;2023-06-10T14:41:29;25.60;99.90
25640;DHT22;13497;48.322;16.204;2023-06-10T14:43:55;25.70;99.90
25640;DHT22;13497;48.322;16.204;2023-06-10T14:46:21;25.70;99.90
25640;DHT22;13497;48.322;16.204;2023-06-10T14:48:47;25.80;99.90
25640;DHT22;13497;48.322;16.204;2023-06-10T14:51:12;25.90;99.90
25640;DHT22;13497;48.322;16.204;2023-06-10T14:53:38;25.80;99.90
25640;DHT22;13497;48.322;16.204;2023-06-10T14:56:05;25.80;99.90
25640;DHT22;13497;48.322;16.204;2023-06-10T14:58:30;25.60;99.90
25640;DHT22;13497;48.322;16.204;2023-06-10T15:00:58;25.50;99.90
25640;DHT22;13497;48.322;16.204;2023-06-10T15:03:24;25.60;99.90
25640;DHT22;13497;48.322;16.204;2023-06-10T15:05:50;25.60;99.90
25640;DHT22;13497;48.322;16.204;2023-06-10T15:08:16;25.60;99.90
25640;DHT22;13497;48.322;16.204;2023-06-10T15:10:41;25.40;99.90
25640;DHT22;13497;48.322;16.204;2023-06-10T15:13:07;25.00;99.90
25640;DHT22;13497;48.322;16.204;2023-06-10T15:15:33;24.70;99.90
25640;DHT22;13497;48.322;16.204;2023-06-10T15:17:58;24.20;99.90
25640;DHT22;13497;48.322;16.204;2023-06-10T15:20:24;23.50;99.90
25640;DHT22;13497;48.322;16.204;2023-06-10T15:22:52;22.80;99.90
25640;DHT22;13497;48.322;16.204;2023-06-10T15:25:19;22.30;99.90
25640;DHT22;13497;48.322;16.204;2023-06-10T15:27:46;22.10;99.90